• Join FlightAware (Why Join?)
  • Login
  • US Flag 
11:40AM EST


 

Airport Tracker/Info


-or-


 

Live Flight TrackerFlight Track Log ✈ SWA218 ✈ 11-Jul-2013 ✈ KLAS - KSDF

Flight Track Log - Related Links

Times and Time Zones

All times are in EDT time to prevent confusion due to time zone crossing. See the SWA218 flight status page for this flight to view local times or setup timezone preferences in your user account.

Time Position Orientation Groundspeed Altitude Reporting Facility
EDT Latitude Longitude Course Direction KTS MPH feet Rate Location/Type
07:52PM 36.0758 -115.1072 90° East 152 175 3,500  Level Los Angeles Center
07:53PM 36.0761 -115.0192 90° East 215 247 5,600 1,620 Climbing Los Angeles Center
07:54PM 36.0794 -114.9356 87° East 264 304 7,000 1,800 Climbing Los Angeles Center
07:55PM 36.0889 -114.8747 79° East 275 316 8,400 2,400 Climbing Los Angeles Center
07:56PM 36.1056 -114.7714 79° East 304 350 11,000 2,220 Climbing Los Angeles Center
07:57PM 36.1272 -114.6431 78° East 381 438 13,000 2,280 Climbing Los Angeles Center
07:58PM 36.1497 -114.5064 78° East 403 464 15,800 2,700 Climbing Los Angeles Center
07:59PM 36.1722 -114.3644 79° East 418 481 18,600 2,640 Climbing Los Angeles Center
08:00PM 36.1964 -114.2197 78° East 428 493 21,300 2,700 Climbing Los Angeles Center
08:01PM 36.2228 -114.0428 79° East 434 499 24,200 2,460 Climbing Los Angeles Center
08:02PM 36.2744 -113.9011 66° East 446 513 26,400 2,040 Climbing Los Angeles Center
08:03PM 36.3222 -113.7575 68° East 450 518 28,500 1,860 Climbing Los Angeles Center
08:04PM 36.3717 -113.6128 67° East 454 522 30,300 1,680 Climbing Los Angeles Center
08:05PM 36.4197 -113.4661 68° East 460 529 32,000 1,620 Climbing Los Angeles Center
08:06PM 36.4689 -113.3203 67° East 459 528 33,700 1,500 Climbing Los Angeles Center
08:07PM 36.5269 -113.1419 68° East 459 528 35,100 1,440 Climbing Los Angeles Center
08:08PM 36.5761 -112.9944 67° East 463 533 36,700 1,500 Climbing Los Angeles Center
08:09PM 36.6228 -112.8478 68° East 460 529 38,200 1,080 Climbing Los Angeles Center
08:10PM 36.6700 -112.7025 68° East 457 526 39,000 360 Climbing Los Angeles Center
08:11PM 36.7169 -112.5558 68° East 457 526 39,000  Level Los Angeles Center
08:12PM 36.7644 -112.4092 68° East 458 527 39,000  Level Los Angeles Center
08:13PM 36.8200 -112.2314 69° East 460 529 39,000  Level Los Angeles Center
08:14PM 36.8683 -112.0822 68° East 464 534 39,000  Level Los Angeles Center
08:16PM 36.9150 -111.9319 69° East 466 536 39,000  Level Los Angeles Center
08:17PM 36.9617 -111.7831 69° East 464 534 39,000  Level Los Angeles Center
08:18PM 37.0083 -111.6364 68° East 457 526 39,000  Level Los Angeles Center
08:19PM 37.0628 -111.4575 69° East 460 529 39,000  Level Los Angeles Center
08:20PM 37.1092 -111.3078 69° East 461 531 39,000  Level Los Angeles Center
08:21PM 37.1536 -111.1583 69° East 460 529 39,000  Level Los Angeles Center
08:22PM 37.2261 -110.9217 69° East 456 525 39,000  Level Denver Center
08:23PM 37.2711 -110.7725 69° East 460 529 39,000  Level Denver Center
08:24PM 37.3156 -110.6244 69° East 455 524 39,000  Level Denver Center
08:25PM 37.3611 -110.4778 69° East 452 520 39,000  Level Denver Center
08:26PM 37.4039 -110.3300 70° East 451 519 39,000  Level Denver Center
08:27PM 37.4536 -110.1664 69° East 452 520 39,000  Level Denver Center
08:28PM 37.4939 -110.0236 70° East 452 520 39,000  Level Denver Center
08:29PM 37.5553 -109.8622 64° Northeast 454 522 39,000  Level Denver Center
08:30PM 37.6061 -109.7242 65° Northeast 453 521 39,000  Level Denver Center
08:32PM 37.6647 -109.5647 65° Northeast 448 516 39,000  Level Denver Center
08:33PM 37.7133 -109.4267 66° East 448 516 39,000  Level Denver Center
08:34PM 37.7628 -109.2608 69° East 451 519 39,000  Level Denver Center
08:35PM 37.8044 -109.1192 70° East 449 517 39,000  Level Denver Center
08:36PM 37.8561 -108.9533 68° East 452 520 39,000  Level Denver Center
08:37PM 37.8986 -108.8100 69° East 454 522 39,000  Level Denver Center
08:38PM 37.9411 -108.6678 69° East 451 519 39,000  Level Denver Center
08:39PM 37.9917 -108.4978 69° East 458 527 39,000  Level Denver Center
08:40PM 38.0336 -108.3556 69° East 454 522 39,000  Level Denver Center
08:41PM 38.0844 -108.1794 70° East 457 526 39,000  Level Denver Center
08:42PM 38.1256 -108.0353 70° East 455 524 39,000  Level Denver Center
08:43PM 38.1625 -107.8628 75° East 454 522 39,000  Level Denver Center
08:44PM 38.1761 -107.7133 83° East 448 516 39,000  Level Denver Center
08:45PM 38.1903 -107.5608 83° East 452 520 39,000  Level Denver Center
08:46PM 38.2064 -107.3811 83° East 458 527 39,000  Level Denver Center
08:47PM 38.2208 -107.2278 83° East 458 527 39,000  Level Denver Center
08:48PM 38.2356 -107.0542 84° East 450 518 39,000  Level Denver Center
08:49PM 38.2497 -106.8922 84° East 461 531 39,000  Level Denver Center
08:50PM 38.2644 -106.7183 84° East 454 522 39,000  Level Denver Center
08:51PM 38.2753 -106.5639 85° East 458 527 39,000  Level Denver Center
08:52PM 38.2689 -106.4103 93° East 459 528 39,000  Level Denver Center
08:53PM 38.2658 -106.2178 91° East 457 526 39,000  Level Denver Center
08:54PM 38.2611 -106.0572 92° East 455 524 39,000  Level Denver Center
08:55PM 38.2569 -105.9033 92° East 455 524 39,000  Level Denver Center
08:56PM 38.2511 -105.7242 92° East 454 522 39,000  Level Denver Center
08:57PM 38.2456 -105.5711 93° East 454 522 39,000  Level Denver Center
08:58PM 38.2397 -105.3931 92° East 452 520 39,000  Level Denver Center
08:59PM 38.2469 -105.2406 87° East 448 516 39,000  Level Denver Center
09:00PM 38.2614 -105.0625 84° East 451 519 39,000  Level Denver Center
09:01PM 38.2736 -104.9094 84° East 453 521 39,000  Level Denver Center
09:02PM 38.2858 -104.7561 84° East 454 522 39,000  Level Denver Center
09:04PM 38.2989 -104.5769 85° East 454 522 39,000  Level Denver Center
09:05PM 38.3100 -104.4233 85° East 454 522 39,000  Level Denver Center
09:06PM 38.3236 -104.2419 84° East 457 526 39,000  Level Denver Center
09:07PM 38.3344 -104.0892 85° East 453 521 39,000  Level Denver Center
09:08PM 38.3467 -103.9097 85° East 453 521 39,000  Level Denver Center
09:09PM 38.3569 -103.7544 85° East 456 525 39,000  Level Denver Center
09:10PM 38.3672 -103.6006 85° East 453 521 39,000  Level Denver Center
09:11PM 38.3792 -103.4103 85° East 457 526 39,000  Level Denver Center
09:12PM 38.3892 -103.2547 85° East 458 527 39,000  Level Denver Center
09:13PM 38.3981 -103.1000 86° East 458 527 39,000  Level Denver Center
09:14PM 38.4089 -102.9197 86° East 458 527 39,000  Level Denver Center
09:15PM 38.4183 -102.7653 85° East 456 525 39,000  Level Denver Center
09:16PM 38.4281 -102.5867 86° East 453 521 39,000  Level Denver Center
09:17PM 38.4361 -102.4328 86° East 453 521 39,000  Level Denver Center
09:18PM 38.4469 -102.2542 86° East 453 521 39,000  Level Denver Center
09:19PM 38.4542 -102.1008 87° East 452 520 39,000  Level Denver Center
09:20PM 38.4647 -101.9211 86° East 453 521 39,000  Level Denver Center
09:21PM 38.4719 -101.7689 86° East 451 519 39,000  Level Denver Center
09:22PM 38.4797 -101.6158 86° East 451 519 39,000  Level Denver Center
09:23PM 38.4883 -101.4394 86° East 447 514 39,000  Level Denver Center
09:24PM 38.4950 -101.2853 87° East 451 519 39,000  Level Denver Center
09:25PM 38.5028 -101.1086 87° East 446 513 39,000  Level Denver Center
09:26PM 38.5097 -100.9578 87° East 444 511 39,000  Level Denver Center
09:27PM 38.5178 -100.7822 87° East 442 509 39,000  Level Denver Center
09:28PM 38.5231 -100.6294 87° East 448 516 39,000  Level Denver Center
09:29PM 38.5281 -100.5017 87° East 445 512 39,000  Level Kansas City Center
09:31PM 38.5417 -100.1478 87° East 446 513 39,000  Level Denver Center
09:32PM 38.5475 -99.9725 88° East 442 509 39,000  Level Denver Center
09:33PM 38.5525 -99.8219 88° East 442 509 39,000  Level Denver Center
09:34PM 38.5581 -99.6467 88° East 443 510 39,000  Level Denver Center
09:35PM 38.5625 -99.4972 88° East 440 506 39,000  Level Denver Center
09:37PM 38.5739 -99.3393 85° East  Level FlightAware Approximate
09:41PM 38.5861 -98.6747 86° East 441 507 39,000  Level Kansas City Center
09:42PM 38.5889 -98.5172 89° East 442 509 39,000  Level Kansas City Center
09:43PM 38.5925 -98.3592 88° East 443 510 39,000  Level Kansas City Center
09:44PM 38.6465 -98.2507 85° East  Level FlightAware Approximate
09:44PM 38.5958 -98.2011 88° East 444 511 39,000  Level Kansas City Center
09:45PM 38.6560 -98.0950 85° East  Level FlightAware Approximate
09:45PM 38.5994 -98.0411 88° East 447 514 39,000  Level Kansas City Center
09:46PM 38.6653 -97.9393 86° East  Level FlightAware Approximate
09:46PM 38.6019 -97.8819 89° East 445 512 39,000  Level Kansas City Center
09:47PM 38.6042 -97.7208 89° East 449 517 39,000  Level Kansas City Center
09:48PM 38.6069 -97.5303 89° East 446 513 39,000  Level Kansas City Center
09:49PM 38.6089 -97.3703 89° East 448 516 39,000  Level Kansas City Center
09:50PM 38.6100 -97.2108 89° East 448 516 39,000  Level Kansas City Center
09:51PM 38.6119 -97.0511 89° East 448 516 39,000  Level Kansas City Center
09:52PM 38.6122 -96.8919 90° East 447 514 39,000  Level Kansas City Center
09:53PM 38.6128 -96.7247 90° East 447 514 39,000  Level Kansas City Center
09:54PM 38.6139 -96.5728 89° East 447 514 39,000  Level Kansas City Center
09:55PM 38.6150 -96.3961 89° East 447 514 39,000  Level Kansas City Center
09:56PM 38.6156 -96.2428 90° East 450 518 39,000  Level Kansas City Center
09:57PM 38.6156 -96.0619 90° East 457 526 39,000  Level Kansas City Center
09:58PM 38.6156 -95.9078 90° East 456 525 39,000  Level Kansas City Center
09:59PM 38.6164 -95.7564 90° East 448 516 39,000  Level Kansas City Center
10:00PM 38.6150 -95.5775 91° East 451 519 39,000  Level Kansas City Center
10:01PM 38.6153 -95.4239 90° East 453 521 39,000  Level Kansas City Center
10:02PM 38.6142 -95.2464 90° East 450 518 39,000  Level Kansas City Center
10:03PM 38.6128 -95.0942 91° East 449 517 39,000  Level Kansas City Center
10:04PM 38.6114 -94.9153 91° East 452 520 39,000  Level Kansas City Center
10:05PM 38.6106 -94.7631 90° East 450 518 39,000  Level Kansas City Center
10:06PM 38.6086 -94.5833 91° East 455 524 39,000  Level Kansas City Center
10:07PM 38.6064 -94.4294 91° East 455 524 39,000  Level Kansas City Center
10:08PM 38.6044 -94.2731 91° East 458 527 39,000  Level Kansas City Center
10:09PM 38.6014 -94.0900 91° East 462 532 39,000  Level Kansas City Center
10:10PM 38.5981 -93.9339 92° East 462 532 39,000  Level Kansas City Center
10:11PM 38.5956 -93.7503 91° East 464 534 39,000  Level Kansas City Center
10:13PM 38.5939 -93.6075 91° East 467 537 39,000  Level Kansas City Center
10:14PM 38.5894 -93.4083 92° East 466 536 39,000  Level Kansas City Center
10:15PM 38.5856 -93.2414 92° East 468 539 39,000  Level Kansas City Center
10:16PM 38.5814 -93.0747 92° East 468 539 39,000  Level Kansas City Center
10:17PM 38.5772 -92.9092 92° East 465 535 39,000  Level Kansas City Center
10:18PM 38.5731 -92.7422 92° East 465 535 39,000  Level Kansas City Center
10:19PM 38.5681 -92.5758 92° East 467 537 39,000  Level Kansas City Center
10:20PM 38.5642 -92.4058 92° East 470 541 39,000  Level Kansas City Center
10:21PM 38.5581 -92.2350 93° East 474 545 39,000  Level Kansas City Center
10:22PM 38.5519 -92.0664 93° East 474 545 39,000  Level Kansas City Center
10:23PM 38.5458 -91.8972 93° East 473 544 39,000  Level Kansas City Center
10:24PM 38.5406 -91.7269 92° East 475 547 39,000  Level Kansas City Center
10:25PM 38.5339 -91.5569 93° East 476 548 39,000  Level Kansas City Center
10:26PM 38.5258 -91.3858 93° East 478 550 39,000  Level Kansas City Center
10:27PM 38.5192 -91.1911 92° East 476 548 39,000  Level Kansas City Center
10:28PM 38.5122 -91.0253 93° East 472 543 39,000  Level Kansas City Center
10:29PM 38.5050 -90.8606 93° East 469 540 39,000  Level Kansas City Center
10:30PM 38.4961 -90.6839 94° East 469 540 39,000  Level Kansas City Center
10:31PM 38.4869 -90.5172 94° East 469 540 39,000  Level Kansas City Center
10:32PM 38.4789 -90.3508 93° East 470 541 39,000  Level Kansas City Center
10:33PM 38.4739 -90.2047 92° East 463 533 39,000  Level Kansas City Center
10:34PM 38.4656 -90.0081 93° East 469 540 39,000  Level Kansas City Center
10:35PM 38.4558 -89.8475 94° East 458 527 39,000  Level Kansas City Center
10:36PM 38.4481 -89.6722 93° East 468 539 39,000  Level Kansas City Center
10:37PM 38.4394 -89.5064 94° East 471 542 39,000  Level Kansas City Center
10:38PM 38.4292 -89.3267 94° East 473 544 39,000  Level Kansas City Center
10:39PM 38.4194 -89.1586 94° East 478 550 39,000  Level Kansas City Center
10:40PM 38.4114 -88.9900 93° East 477 549 39,000  Level Kansas City Center
10:41PM 38.4053 -88.8092 92° East 476 548 39,000 -840 Level Kansas City Center
10:42PM 38.3981 -88.6656 94° East 472 543 37,300 -2,340 Descending Kansas City Center
10:43PM 38.3892 -88.4972 94° East 474 545 34,300 -3,180 Descending Kansas City Center
10:44PM 38.3811 -88.3261 93° East 481 554 30,900 -2,640 Descending Kansas City Center
10:45PM 38.3717 -88.1267 93° East 470 541 29,000 -1,200 Descending Kansas City Center
10:46PM 38.3700 -88.0661 92° East 456 525 29,000  Level Indianapolis Center
10:47PM 38.3625 -87.9108 93° East 442 509 29,000  Level Indianapolis Center
10:48PM 38.3533 -87.7528 94° East 446 513 29,000 -300 Level Indianapolis Center
10:49PM 38.3433 -87.5636 94° East 447 514 28,400 -1,440 Descending Indianapolis Center
10:50PM 38.3350 -87.4094 94° East 438 504 26,100 -2,400 Descending Indianapolis Center
10:51PM 38.3258 -87.2617 94° East 422 486 23,600 -2,280 Descending Indianapolis Center
10:52PM 38.3089 -87.1283 99° East 416 479 21,500 -2,220 Descending Indianapolis Center
10:53PM 38.2911 -86.9886 99° East 410 472 19,200 -2,220 Descending Indianapolis Center
10:54PM 38.2742 -86.8553 99° East 393 452 17,000 -2,400 Descending Indianapolis Center
10:55PM 38.2542 -86.7000 99° East 372 428 14,300 -2,460 Descending Indianapolis Center
10:56PM 38.2378 -86.5736 99° East 362 417 12,000 -2,100 Descending Indianapolis Center
10:57PM 38.2219 -86.4525 99° East 351 404 10,100 -1,320 Descending Indianapolis Center
10:58PM 38.2083 -86.3475 99° East 304 350 9,400 -1,200 Descending Indianapolis Center
10:59PM 38.1947 -86.2467 100° East 288 331 7,700 -1,500 Descending Indianapolis Center
11:00PM 38.1819 -86.1461 99° East 289 333 6,400 -840 Descending Indianapolis Center
11:01PM 38.1706 -86.0522 99° East 275 316 6,000 -240 Descending Indianapolis Center
11:02PM 38.1622 -85.9594 96° East 265 305 6,000  Level Indianapolis Center
11:03PM 38.1561 -85.8656 95° East 266 306 6,000 -120 Level Indianapolis Center
11:04PM 38.1025 -85.8197 146° Southeast 239 275 5,800 -600 Descending Indianapolis Center
11:05PM 38.0408 -85.7981 165° South 231 266 4,800 -900 Descending Indianapolis Center
11:06PM 37.9792 -85.7783 166° South 229 264 4,000 -420 Descending Indianapolis Center
11:07PM 37.9772 -85.7036 92° East 210 242 4,000 -300 Level Indianapolis Center
11:08PM 38.0308 -85.6947 North 207 238 3,500 -900 Descending Indianapolis Center
11:09PM 38.0792 -85.7133 343° North 196 226 2,200 -840 Descending Indianapolis Center
11:10PM 38.1267 -85.7289 346° North 193 222 1,900 -300 Descending Indianapolis Center